TAX977 LPMA-LEBL
Flight info
| Callsign | TAX977 |
|---|---|
| Flight time | 3h 16m |
| Altitude | 36000 |
| Route | DEGUN DCT RULET DCT GALPA DCT TOSDI N745 ZMR N976 DGO/N0462F320 N725 ELSAP/N0462F300 N725 LOBAR |
| Aircraft | A320/M-SDE3FGHIRWY/LB1 |
Departure
| Time | 2026-05-05 10:59 |
|---|---|
| Airport | Cristiano Ronaldo International Airport (LPMA) |
Arrival
| Time | 2026-05-05 14:16 |
|---|---|
| Airport | Josep Tarradellas Barcelona-El Prat Airport (LEBL) |
| Time | Latitude | Longitude | Altitude | Speed | Heading |
|---|---|---|---|---|---|
| 2026-05-05 10:59 | 32.82675 | -16.53689 | 10653 ft | 295 kts | 51° |
| 2026-05-05 10:59 | 32.84019 | -16.51710 | 11188 ft | 319 kts | 51° |
| 2026-05-05 10:59 | 32.85467 | -16.49584 | 11561 ft | 343 kts | 51° |
| 2026-05-05 10:59 | 32.87022 | -16.47304 | 11923 ft | 366 kts | 51° |
| 2026-05-05 11:00 | 32.88656 | -16.44914 | 12546 ft | 378 kts | 50° |
| 2026-05-05 11:00 | 32.90334 | -16.42453 | 13303 ft | 385 kts | 51° |
| 2026-05-05 11:00 | 32.92014 | -16.39983 | 13903 ft | 378 kts | 50° |
| 2026-05-05 11:00 | 32.93643 | -16.37587 | 14021 ft | 373 kts | 51° |
| 2026-05-05 11:01 | 32.95317 | -16.35120 | 14383 ft | 389 kts | 50° |
| 2026-05-05 11:01 | 32.97010 | -16.32617 | 14896 ft | 393 kts | 50° |
| 2026-05-05 11:01 | 32.98686 | -16.30133 | 15009 ft | 378 kts | 50° |
| 2026-05-05 11:01 | 33.00343 | -16.27650 | 15134 ft | 379 kts | 51° |
| 2026-05-05 11:02 | 33.01980 | -16.25177 | 15254 ft | 381 kts | 51° |
| 2026-05-05 11:02 | 33.03629 | -16.22691 | 15372 ft | 384 kts | 50° |
| 2026-05-05 11:02 | 33.05298 | -16.20192 | 15470 ft | 386 kts | 50° |
| 2026-05-05 11:02 | 33.06972 | -16.17715 | 15594 ft | 376 kts | 50° |
| 2026-05-05 11:03 | 33.08599 | -16.15348 | 15719 ft | 367 kts | 49° |
| 2026-05-05 11:03 | 33.10246 | -16.12965 | 15837 ft | 387 kts | 50° |
| 2026-05-05 11:03 | 33.11992 | -16.10427 | 16144 ft | 402 kts | 50° |
| 2026-05-05 11:03 | 33.13779 | -16.07807 | 16682 ft | 410 kts | 50° |
| 2026-05-05 11:04 | 33.15572 | -16.05155 | 17329 ft | 413 kts | 50° |
| 2026-05-05 11:04 | 33.17390 | -16.02449 | 17958 ft | 419 kts | 50° |
| 2026-05-05 11:04 | 33.19213 | -15.99731 | 18754 ft | 421 kts | 49° |
| 2026-05-05 11:04 | 33.21060 | -15.96977 | 19372 ft | 427 kts | 50° |
| 2026-05-05 11:05 | 33.22928 | -15.94192 | 19993 ft | 431 kts | 50° |
| 2026-05-05 11:05 | 33.24813 | -15.91380 | 20538 ft | 434 kts | 50° |
| 2026-05-05 11:05 | 33.26702 | -15.88562 | 21058 ft | 438 kts | 50° |
| 2026-05-05 11:05 | 33.28616 | -15.85706 | 21589 ft | 441 kts | 50° |
| 2026-05-05 11:06 | 33.30537 | -15.82832 | 22088 ft | 445 kts | 50° |
| 2026-05-05 11:06 | 33.32471 | -15.79931 | 22613 ft | 447 kts | 50° |
| 2026-05-05 11:06 | 33.34415 | -15.77013 | 23084 ft | 451 kts | 50° |
| 2026-05-05 11:06 | 33.36371 | -15.74080 | 23593 ft | 453 kts | 50° |
| 2026-05-05 11:07 | 33.38345 | -15.71120 | 24015 ft | 457 kts | 50° |
| 2026-05-05 11:07 | 33.40335 | -15.68145 | 24450 ft | 459 kts | 49° |
| 2026-05-05 11:07 | 33.42540 | -15.65377 | 24836 ft | 460 kts | 40° |
| 2026-05-05 11:07 | 33.45057 | -15.63006 | 25249 ft | 461 kts | 34° |
| 2026-05-05 11:08 | 33.47650 | -15.60736 | 25670 ft | 463 kts | 34° |
| 2026-05-05 11:08 | 33.50211 | -15.58489 | 26033 ft | 466 kts | 34° |
| 2026-05-05 11:08 | 33.52833 | -15.56180 | 26395 ft | 469 kts | 35° |
| 2026-05-05 11:08 | 33.55470 | -15.53848 | 26765 ft | 472 kts | 35° |
| 2026-05-05 11:09 | 33.58122 | -15.51495 | 27135 ft | 475 kts | 35° |
| 2026-05-05 11:09 | 33.60787 | -15.49126 | 27519 ft | 478 kts | 35° |
| 2026-05-05 11:09 | 33.63458 | -15.46753 | 27890 ft | 480 kts | 35° |
| 2026-05-05 11:09 | 33.66154 | -15.44359 | 28250 ft | 483 kts | 35° |
| 2026-05-05 11:10 | 33.68872 | -15.41947 | 28585 ft | 486 kts | 35° |
| 2026-05-05 11:10 | 33.71558 | -15.39566 | 28902 ft | 488 kts | 35° |
| 2026-05-05 11:10 | 33.74317 | -15.37121 | 29361 ft | 487 kts | 35° |
| 2026-05-05 11:10 | 33.77011 | -15.34730 | 29899 ft | 486 kts | 35° |
| 2026-05-05 11:11 | 33.79732 | -15.32308 | 30399 ft | 486 kts | 36° |
| 2026-05-05 11:11 | 33.82444 | -15.29893 | 30879 ft | 485 kts | 35° |
| 2026-05-05 11:11 | 33.85152 | -15.27478 | 31394 ft | 483 kts | 35° |
| 2026-05-05 11:11 | 33.87843 | -15.25076 | 31902 ft | 480 kts | 35° |
| 2026-05-05 11:12 | 33.90521 | -15.22684 | 32362 ft | 478 kts | 34° |
| 2026-05-05 11:12 | 33.93193 | -15.20300 | 32803 ft | 476 kts | 34° |
| 2026-05-05 11:12 | 33.95847 | -15.17928 | 33244 ft | 474 kts | 34° |
| 2026-05-05 11:12 | 33.98489 | -15.15559 | 33676 ft | 472 kts | 34° |
| 2026-05-05 11:13 | 34.01122 | -15.13197 | 34121 ft | 470 kts | 34° |
| 2026-05-05 11:13 | 34.03737 | -15.10851 | 34494 ft | 469 kts | 34° |
| 2026-05-05 11:13 | 34.06358 | -15.08500 | 34850 ft | 468 kts | 34° |
| 2026-05-05 11:13 | 34.08972 | -15.06155 | 35152 ft | 469 kts | 34° |
| 2026-05-05 11:14 | 34.11587 | -15.03805 | 35485 ft | 468 kts | 34° |
| 2026-05-05 11:14 | 34.14199 | -15.01452 | 35830 ft | 468 kts | 34° |
| 2026-05-05 11:14 | 34.16767 | -14.99138 | 36105 ft | 468 kts | 34° |
| 2026-05-05 11:15 | 34.22027 | -14.94394 | 36188 ft | 469 kts | 34° |
| 2026-05-05 11:15 | 34.26993 | -14.89281 | 36185 ft | 472 kts | 44° |
| 2026-05-05 11:16 | 34.31496 | -14.83576 | 36184 ft | 472 kts | 44° |
| 2026-05-05 11:16 | 34.36031 | -14.77825 | 36187 ft | 473 kts | 44° |
| 2026-05-05 11:17 | 34.40574 | -14.72073 | 36185 ft | 473 kts | 43° |
| 2026-05-05 11:17 | 34.45324 | -14.66567 | 36183 ft | 472 kts | 40° |
| 2026-05-05 11:18 | 34.50201 | -14.61265 | 36184 ft | 471 kts | 39° |
| 2026-05-05 11:18 | 34.55054 | -14.55900 | 36184 ft | 472 kts | 40° |
| 2026-05-05 11:19 | 34.59844 | -14.50466 | 36186 ft | 471 kts | 41° |
| 2026-05-05 11:19 | 34.64628 | -14.45009 | 36199 ft | 471 kts | 40° |
| 2026-05-05 11:20 | 34.69421 | -14.39565 | 36186 ft | 472 kts | 40° |
| 2026-05-05 11:20 | 34.74218 | -14.34113 | 36177 ft | 472 kts | 40° |
| 2026-05-05 11:21 | 34.79024 | -14.28637 | 36178 ft | 473 kts | 40° |
| 2026-05-05 11:21 | 34.83829 | -14.23164 | 36181 ft | 473 kts | 40° |
| 2026-05-05 11:22 | 34.88627 | -14.17680 | 36179 ft | 473 kts | 41° |
| 2026-05-05 11:22 | 34.93428 | -14.12186 | 36201 ft | 473 kts | 41° |
| 2026-05-05 11:23 | 34.98188 | -14.06716 | 36186 ft | 474 kts | 41° |
| 2026-05-05 11:23 | 35.02990 | -14.01198 | 36182 ft | 474 kts | 41° |
| 2026-05-05 11:24 | 35.07805 | -13.95670 | 36181 ft | 474 kts | 41° |
| 2026-05-05 11:24 | 35.12602 | -13.90150 | 36180 ft | 474 kts | 41° |
| 2026-05-05 11:25 | 35.17371 | -13.84649 | 36176 ft | 474 kts | 41° |
| 2026-05-05 11:25 | 35.22160 | -13.79113 | 36179 ft | 474 kts | 41° |
| 2026-05-05 11:26 | 35.26962 | -13.73544 | 36185 ft | 474 kts | 41° |
| 2026-05-05 11:26 | 35.31750 | -13.67979 | 36185 ft | 474 kts | 41° |
| 2026-05-05 11:27 | 35.36539 | -13.62416 | 36183 ft | 474 kts | 41° |
| 2026-05-05 11:27 | 35.41330 | -13.56832 | 36183 ft | 474 kts | 41° |
| 2026-05-05 11:28 | 35.46086 | -13.51297 | 36181 ft | 474 kts | 41° |
| 2026-05-05 11:28 | 35.50896 | -13.45694 | 36189 ft | 475 kts | 41° |
| 2026-05-05 11:29 | 35.55675 | -13.40087 | 36180 ft | 475 kts | 41° |
| 2026-05-05 11:29 | 35.60426 | -13.34496 | 36179 ft | 476 kts | 41° |
| 2026-05-05 11:30 | 35.65211 | -13.28890 | 36182 ft | 476 kts | 41° |
| 2026-05-05 11:30 | 35.70001 | -13.23262 | 36183 ft | 476 kts | 41° |
| 2026-05-05 11:31 | 35.74784 | -13.17622 | 36179 ft | 476 kts | 41° |
| 2026-05-05 11:31 | 35.79573 | -13.11980 | 36192 ft | 477 kts | 41° |
| 2026-05-05 11:32 | 35.84352 | -13.06320 | 36185 ft | 477 kts | 41° |
| 2026-05-05 11:32 | 35.89142 | -13.00645 | 36176 ft | 478 kts | 41° |
| 2026-05-05 11:33 | 35.93938 | -12.94956 | 36178 ft | 478 kts | 41° |
| 2026-05-05 11:33 | 35.98735 | -12.89248 | 36178 ft | 478 kts | 41° |
| 2026-05-05 11:34 | 36.03522 | -12.83543 | 36179 ft | 478 kts | 41° |
| 2026-05-05 11:34 | 36.08318 | -12.77828 | 36199 ft | 479 kts | 41° |
| 2026-05-05 11:35 | 36.13085 | -12.72136 | 36186 ft | 479 kts | 41° |
| 2026-05-05 11:35 | 36.17873 | -12.66409 | 36171 ft | 479 kts | 41° |
| 2026-05-05 11:36 | 36.22664 | -12.60662 | 36180 ft | 479 kts | 41° |
| 2026-05-05 11:36 | 36.27451 | -12.54901 | 36187 ft | 479 kts | 41° |
| 2026-05-05 11:37 | 36.32233 | -12.49145 | 36175 ft | 479 kts | 41° |
| 2026-05-05 11:37 | 36.37019 | -12.43381 | 36184 ft | 479 kts | 41° |
| 2026-05-05 11:38 | 36.41807 | -12.37604 | 36193 ft | 479 kts | 41° |
| 2026-05-05 11:38 | 36.46583 | -12.31816 | 36186 ft | 479 kts | 41° |
| 2026-05-05 11:39 | 36.51314 | -12.26053 | 36189 ft | 480 kts | 41° |
| 2026-05-05 11:39 | 36.56091 | -12.20248 | 36181 ft | 480 kts | 41° |
| 2026-05-05 11:40 | 36.60862 | -12.14462 | 36180 ft | 480 kts | 41° |
| 2026-05-05 11:40 | 36.65635 | -12.08643 | 36201 ft | 480 kts | 42° |
| 2026-05-05 11:41 | 36.70399 | -12.02820 | 36183 ft | 480 kts | 41° |
| 2026-05-05 11:41 | 36.75170 | -11.96980 | 36179 ft | 480 kts | 41° |
| 2026-05-05 11:42 | 36.79934 | -11.91143 | 36180 ft | 480 kts | 41° |
| 2026-05-05 11:42 | 36.84674 | -11.85318 | 36180 ft | 481 kts | 42° |
| 2026-05-05 11:43 | 36.89431 | -11.79460 | 36193 ft | 481 kts | 41° |
| 2026-05-05 11:43 | 36.94199 | -11.73576 | 36186 ft | 481 kts | 41° |
| 2026-05-05 11:44 | 36.98961 | -11.67698 | 36181 ft | 481 kts | 41° |
| 2026-05-05 11:44 | 37.03729 | -11.61803 | 36178 ft | 481 kts | 41° |
| 2026-05-05 11:45 | 37.08492 | -11.55905 | 36174 ft | 481 kts | 41° |
| 2026-05-05 11:45 | 37.12447 | -11.51003 | 36176 ft | 481 kts | 42° |
| 2026-05-05 11:46 | 37.17975 | -11.44118 | 36193 ft | 482 kts | 41° |
| 2026-05-05 11:46 | 37.21962 | -11.39144 | 36177 ft | 483 kts | 41° |
| 2026-05-05 11:47 | 37.26702 | -11.33225 | 36170 ft | 483 kts | 41° |
| 2026-05-05 11:47 | 37.31465 | -11.27273 | 36171 ft | 484 kts | 41° |
| 2026-05-05 11:48 | 37.38620 | -11.18304 | 36173 ft | 484 kts | 41° |
| 2026-05-05 11:48 | 37.43387 | -11.12309 | 36181 ft | 485 kts | 41° |
| 2026-05-05 11:49 | 37.48163 | -11.06298 | 36175 ft | 485 kts | 41° |
| 2026-05-05 11:49 | 37.52937 | -11.00269 | 36158 ft | 486 kts | 41° |
| 2026-05-05 11:50 | 37.57711 | -10.94236 | 36169 ft | 486 kts | 41° |
| 2026-05-05 11:50 | 37.62489 | -10.88179 | 36162 ft | 487 kts | 41° |
| 2026-05-05 11:51 | 37.67266 | -10.82121 | 36161 ft | 487 kts | 41° |
| 2026-05-05 11:51 | 37.72023 | -10.76074 | 36177 ft | 488 kts | 41° |
| 2026-05-05 11:52 | 37.76802 | -10.69972 | 36164 ft | 488 kts | 41° |
| 2026-05-05 11:52 | 37.81574 | -10.63864 | 36164 ft | 488 kts | 41° |
| 2026-05-05 11:53 | 37.86354 | -10.57771 | 36164 ft | 488 kts | 41° |
| 2026-05-05 11:53 | 37.91146 | -10.51658 | 36164 ft | 489 kts | 41° |
| 2026-05-05 11:54 | 37.95891 | -10.45555 | 36160 ft | 489 kts | 41° |
| 2026-05-05 11:54 | 38.00672 | -10.39388 | 36153 ft | 489 kts | 41° |
| 2026-05-05 11:55 | 38.05443 | -10.33236 | 36153 ft | 489 kts | 41° |
| 2026-05-05 11:55 | 38.10215 | -10.27068 | 36151 ft | 490 kts | 41° |
| 2026-05-05 11:56 | 38.14990 | -10.20886 | 36152 ft | 490 kts | 41° |
| 2026-05-05 11:56 | 38.19731 | -10.14737 | 36155 ft | 490 kts | 41° |
| 2026-05-05 11:57 | 38.24504 | -10.08543 | 36163 ft | 491 kts | 41° |
| 2026-05-05 11:57 | 38.29282 | -10.02324 | 36152 ft | 491 kts | 41° |
| 2026-05-05 11:58 | 38.34056 | -9.96101 | 36146 ft | 491 kts | 41° |
| 2026-05-05 11:58 | 38.38824 | -9.89861 | 36146 ft | 491 kts | 41° |
| 2026-05-05 11:59 | 38.43594 | -9.83604 | 36147 ft | 492 kts | 41° |
| 2026-05-05 11:59 | 38.48371 | -9.77339 | 36174 ft | 492 kts | 41° |
| 2026-05-05 12:00 | 38.53146 | -9.71071 | 36155 ft | 493 kts | 41° |
| 2026-05-05 12:00 | 38.57895 | -9.64822 | 36141 ft | 493 kts | 41° |
| 2026-05-05 12:01 | 38.62666 | -9.58515 | 36138 ft | 493 kts | 41° |
| 2026-05-05 12:01 | 38.67432 | -9.52198 | 36135 ft | 494 kts | 41° |
| 2026-05-05 12:02 | 38.72208 | -9.45869 | 36137 ft | 494 kts | 41° |
| 2026-05-05 12:02 | 38.76977 | -9.39541 | 36166 ft | 494 kts | 41° |
| 2026-05-05 12:03 | 38.81738 | -9.33206 | 36152 ft | 493 kts | 41° |
| 2026-05-05 12:03 | 38.86488 | -9.26861 | 36147 ft | 493 kts | 41° |
| 2026-05-05 12:04 | 38.91239 | -9.20503 | 36142 ft | 493 kts | 41° |
| 2026-05-05 12:04 | 38.95979 | -9.14158 | 36138 ft | 492 kts | 41° |
| 2026-05-05 12:05 | 39.00717 | -9.07797 | 36167 ft | 492 kts | 41° |
| 2026-05-05 12:05 | 39.05443 | -9.01433 | 36161 ft | 491 kts | 41° |
| 2026-05-05 12:06 | 39.10155 | -8.95078 | 36151 ft | 490 kts | 41° |
| 2026-05-05 12:06 | 39.14858 | -8.88725 | 36140 ft | 490 kts | 41° |
| 2026-05-05 12:07 | 39.19551 | -8.82378 | 36099 ft | 483 kts | 41° |
| 2026-05-05 12:07 | 39.21806 | -8.79315 | 36093 ft | 470 kts | 41° |
| 2026-05-05 12:07 | 39.24029 | -8.76289 | 36102 ft | 458 kts | 41° |
| 2026-05-05 12:08 | 39.26193 | -8.73339 | 36123 ft | 447 kts | 41° |
| 2026-05-05 12:08 | 39.28303 | -8.70460 | 36108 ft | 437 kts | 41° |
| 2026-05-05 12:08 | 39.30371 | -8.67641 | 36107 ft | 426 kts | 40° |
| 2026-05-05 12:08 | 39.32386 | -8.64896 | 36107 ft | 415 kts | 40° |
| 2026-05-05 12:09 | 39.34341 | -8.62233 | 36097 ft | 404 kts | 40° |
| 2026-05-05 12:09 | 39.36248 | -8.59634 | 36098 ft | 393 kts | 40° |
| 2026-05-05 12:09 | 39.38102 | -8.57104 | 36099 ft | 382 kts | 40° |
| 2026-05-05 12:09 | 39.39902 | -8.54646 | 36098 ft | 371 kts | 39° |
| 2026-05-05 12:10 | 39.41655 | -8.52250 | 36100 ft | 360 kts | 39° |
| 2026-05-05 12:10 | 39.43349 | -8.49932 | 36097 ft | 349 kts | 39° |
| 2026-05-05 12:10 | 39.44999 | -8.47673 | 35937 ft | 344 kts | 39° |
| 2026-05-05 12:10 | 39.46638 | -8.45445 | 35514 ft | 348 kts | 38° |
| 2026-05-05 12:11 | 39.48329 | -8.43172 | 35069 ft | 353 kts | 38° |
| 2026-05-05 12:11 | 39.50031 | -8.40899 | 34898 ft | 348 kts | 38° |
| 2026-05-05 12:11 | 39.51689 | -8.38684 | 34922 ft | 337 kts | 37° |
| 2026-05-05 12:11 | 39.53304 | -8.36525 | 34779 ft | 332 kts | 37° |
| 2026-05-05 12:12 | 39.54922 | -8.34377 | 34359 ft | 337 kts | 37° |
| 2026-05-05 12:12 | 39.56584 | -8.32199 | 33935 ft | 342 kts | 36° |
| 2026-05-05 12:12 | 39.58252 | -8.30028 | 33755 ft | 336 kts | 35° |
| 2026-05-05 12:12 | 39.59877 | -8.27911 | 33672 ft | 328 kts | 35° |
| 2026-05-05 12:13 | 39.61482 | -8.25826 | 33364 ft | 327 kts | 35° |
| 2026-05-05 12:13 | 39.63112 | -8.23729 | 32939 ft | 331 kts | 34° |
| 2026-05-05 12:13 | 39.64750 | -8.21640 | 32704 ft | 328 kts | 34° |
| 2026-05-05 12:13 | 39.66360 | -8.19589 | 32629 ft | 321 kts | 34° |
| 2026-05-05 12:14 | 39.67948 | -8.17569 | 32375 ft | 319 kts | 34° |
| 2026-05-05 12:14 | 39.69544 | -8.15557 | 32011 ft | 322 kts | 34° |
| 2026-05-05 12:14 | 39.71156 | -8.13544 | 31746 ft | 320 kts | 33° |
| 2026-05-05 12:14 | 39.72750 | -8.11557 | 31605 ft | 314 kts | 33° |
| 2026-05-05 12:15 | 39.74322 | -8.09606 | 31370 ft | 312 kts | 33° |
| 2026-05-05 12:15 | 39.75899 | -8.07661 | 31113 ft | 312 kts | 32° |
| 2026-05-05 12:15 | 39.77470 | -8.05732 | 30962 ft | 308 kts | 32° |
| 2026-05-05 12:15 | 39.79017 | -8.03838 | 30790 ft | 304 kts | 32° |
| 2026-05-05 12:16 | 39.80559 | -8.01959 | 30519 ft | 304 kts | 31° |
| 2026-05-05 12:16 | 39.82116 | -8.00081 | 30212 ft | 305 kts | 31° |
| 2026-05-05 12:16 | 39.83672 | -7.98217 | 30024 ft | 302 kts | 31° |
| 2026-05-05 12:16 | 39.85192 | -7.96400 | 29869 ft | 298 kts | 31° |
| 2026-05-05 12:17 | 39.86712 | -7.94590 | 29589 ft | 297 kts | 30° |
| 2026-05-05 12:17 | 39.88248 | -7.92780 | 29281 ft | 298 kts | 30° |
| 2026-05-05 12:17 | 39.89679 | -7.90764 | 28877 ft | 322 kts | 57° |
| 2026-05-05 12:17 | 39.90600 | -7.88055 | 28647 ft | 319 kts | 52° |
| 2026-05-05 12:18 | 39.91719 | -7.85580 | 28764 ft | 324 kts | 49° |
| 2026-05-05 12:18 | 39.92965 | -7.83003 | 28668 ft | 346 kts | 48° |
| 2026-05-05 12:18 | 39.94294 | -7.80302 | 28817 ft | 360 kts | 48° |
| 2026-05-05 12:18 | 39.95704 | -7.77544 | 28961 ft | 371 kts | 45° |
| 2026-05-05 12:19 | 39.97316 | -7.74870 | 29100 ft | 380 kts | 40° |
| 2026-05-05 12:19 | 39.99106 | -7.72266 | 29236 ft | 390 kts | 38° |
| 2026-05-05 12:19 | 40.01017 | -7.69678 | 29435 ft | 402 kts | 36° |
| 2026-05-05 12:19 | 40.03005 | -7.67043 | 29560 ft | 414 kts | 37° |
| 2026-05-05 12:20 | 40.05047 | -7.64312 | 29699 ft | 426 kts | 37° |
| 2026-05-05 12:20 | 40.07114 | -7.61487 | 29847 ft | 437 kts | 38° |
| 2026-05-05 12:20 | 40.09222 | -7.58551 | 30019 ft | 447 kts | 38° |
| 2026-05-05 12:20 | 40.11352 | -7.55538 | 30164 ft | 457 kts | 38° |
| 2026-05-05 12:21 | 40.13515 | -7.52452 | 30284 ft | 466 kts | 39° |
| 2026-05-05 12:21 | 40.15694 | -7.49334 | 30409 ft | 474 kts | 39° |
| 2026-05-05 12:21 | 40.17934 | -7.46131 | 30534 ft | 481 kts | 39° |
| 2026-05-05 12:21 | 40.20208 | -7.42885 | 30772 ft | 484 kts | 39° |
| 2026-05-05 12:22 | 40.22488 | -7.39629 | 31121 ft | 485 kts | 39° |
| 2026-05-05 12:22 | 40.24771 | -7.36376 | 31539 ft | 485 kts | 39° |
| 2026-05-05 12:22 | 40.27050 | -7.33132 | 32033 ft | 483 kts | 39° |
| 2026-05-05 12:22 | 40.29324 | -7.29895 | 32485 ft | 482 kts | 39° |
| 2026-05-05 12:23 | 40.31600 | -7.26655 | 32885 ft | 482 kts | 39° |
| 2026-05-05 12:23 | 40.33864 | -7.23433 | 33255 ft | 482 kts | 39° |
| 2026-05-05 12:23 | 40.36139 | -7.20193 | 33689 ft | 482 kts | 39° |
| 2026-05-05 12:23 | 40.38406 | -7.16958 | 34067 ft | 483 kts | 40° |
| 2026-05-05 12:24 | 40.40674 | -7.13713 | 34402 ft | 483 kts | 40° |
| 2026-05-05 12:24 | 40.42923 | -7.10489 | 34726 ft | 483 kts | 40° |
| 2026-05-05 12:24 | 40.45193 | -7.07232 | 35079 ft | 483 kts | 40° |
| 2026-05-05 12:24 | 40.47452 | -7.03990 | 35427 ft | 482 kts | 41° |
| 2026-05-05 12:25 | 40.49714 | -7.00734 | 35774 ft | 482 kts | 41° |
| 2026-05-05 12:25 | 40.51974 | -6.97477 | 36021 ft | 483 kts | 41° |
| 2026-05-05 12:25 | 40.56500 | -6.90948 | 36057 ft | 482 kts | 41° |
| 2026-05-05 12:26 | 40.61030 | -6.84413 | 36057 ft | 482 kts | 41° |
| 2026-05-05 12:26 | 40.65549 | -6.77881 | 36054 ft | 482 kts | 42° |
| 2026-05-05 12:27 | 40.70064 | -6.71330 | 36055 ft | 483 kts | 42° |
| 2026-05-05 12:27 | 40.74566 | -6.64783 | 36074 ft | 482 kts | 42° |
| 2026-05-05 12:28 | 40.79062 | -6.58215 | 36066 ft | 481 kts | 42° |
| 2026-05-05 12:28 | 40.83520 | -6.51711 | 36052 ft | 481 kts | 42° |
| 2026-05-05 12:29 | 40.88006 | -6.45159 | 36061 ft | 481 kts | 43° |
| 2026-05-05 12:29 | 40.92486 | -6.38585 | 36040 ft | 481 kts | 43° |
| 2026-05-05 12:30 | 40.96966 | -6.31980 | 36060 ft | 481 kts | 43° |
| 2026-05-05 12:30 | 41.01671 | -6.25771 | 36055 ft | 476 kts | 37° |
| 2026-05-05 12:31 | 41.06575 | -6.19948 | 36047 ft | 476 kts | 37° |
| 2026-05-05 12:31 | 41.11504 | -6.14068 | 36040 ft | 476 kts | 37° |
| 2026-05-05 12:32 | 41.16424 | -6.08178 | 36037 ft | 476 kts | 37° |
| 2026-05-05 12:32 | 41.21351 | -6.02278 | 36051 ft | 477 kts | 38° |
| 2026-05-05 12:33 | 41.26277 | -5.96348 | 36043 ft | 478 kts | 38° |
| 2026-05-05 12:33 | 41.31204 | -5.90404 | 36034 ft | 478 kts | 38° |
| 2026-05-05 12:34 | 41.36130 | -5.84463 | 36020 ft | 478 kts | 38° |
| 2026-05-05 12:34 | 41.40221 | -5.79526 | 36021 ft | 478 kts | 38° |
| 2026-05-05 12:35 | 41.45947 | -5.72588 | 36025 ft | 477 kts | 38° |
| 2026-05-05 12:35 | 41.50047 | -5.67587 | 36015 ft | 478 kts | 40° |
| 2026-05-05 12:36 | 41.54145 | -5.60599 | 36009 ft | 487 kts | 58° |
| 2026-05-05 12:36 | 41.57065 | -5.52402 | 36000 ft | 489 kts | 62° |
| 2026-05-05 12:37 | 41.59947 | -5.44171 | 36001 ft | 489 kts | 62° |
| 2026-05-05 12:37 | 41.62836 | -5.35921 | 36004 ft | 490 kts | 62° |
| 2026-05-05 12:38 | 41.65711 | -5.27655 | 36038 ft | 491 kts | 63° |
| 2026-05-05 12:38 | 41.68585 | -5.19364 | 36038 ft | 491 kts | 63° |
| 2026-05-05 12:39 | 41.71449 | -5.11083 | 36040 ft | 491 kts | 63° |
| 2026-05-05 12:39 | 41.74310 | -5.02790 | 36040 ft | 491 kts | 63° |
| 2026-05-05 12:40 | 41.77166 | -4.94477 | 36046 ft | 490 kts | 63° |
| 2026-05-05 12:40 | 41.80012 | -4.86161 | 36027 ft | 491 kts | 64° |
| 2026-05-05 12:41 | 41.82828 | -4.77870 | 36017 ft | 492 kts | 64° |
| 2026-05-05 12:41 | 41.85669 | -4.69515 | 36013 ft | 492 kts | 63° |
| 2026-05-05 12:42 | 41.88513 | -4.61154 | 36005 ft | 493 kts | 64° |
| 2026-05-05 12:42 | 41.91334 | -4.52814 | 36024 ft | 493 kts | 64° |
| 2026-05-05 12:43 | 41.94164 | -4.44419 | 36026 ft | 493 kts | 64° |
| 2026-05-05 12:43 | 41.96990 | -4.36031 | 36022 ft | 493 kts | 64° |
| 2026-05-05 12:44 | 41.99803 | -4.27641 | 36018 ft | 492 kts | 64° |
| 2026-05-05 12:44 | 42.02610 | -4.19223 | 36017 ft | 492 kts | 64° |
| 2026-05-05 12:45 | 42.05409 | -4.10819 | 36012 ft | 492 kts | 64° |
| 2026-05-05 12:45 | 42.08201 | -4.02400 | 36011 ft | 492 kts | 64° |
| 2026-05-05 12:46 | 42.10974 | -3.94031 | 36011 ft | 492 kts | 64° |
| 2026-05-05 12:46 | 42.13758 | -3.85613 | 36032 ft | 492 kts | 64° |
| 2026-05-05 12:47 | 42.16535 | -3.77182 | 36016 ft | 492 kts | 65° |
| 2026-05-05 12:47 | 42.19305 | -3.68742 | 36006 ft | 492 kts | 65° |
| 2026-05-05 12:48 | 42.22064 | -3.60302 | 36005 ft | 492 kts | 65° |
| 2026-05-05 12:48 | 42.24824 | -3.51852 | 36002 ft | 492 kts | 65° |
| 2026-05-05 12:49 | 42.27571 | -3.43389 | 36002 ft | 492 kts | 65° |
| 2026-05-05 12:49 | 42.30318 | -3.34899 | 35990 ft | 493 kts | 65° |
| 2026-05-05 12:50 | 42.33048 | -3.26449 | 35991 ft | 493 kts | 66° |
| 2026-05-05 12:50 | 42.35794 | -3.17939 | 35988 ft | 494 kts | 66° |
| 2026-05-05 12:51 | 42.38526 | -3.09407 | 36018 ft | 493 kts | 66° |
| 2026-05-05 12:51 | 42.41250 | -3.00886 | 36009 ft | 493 kts | 66° |
| 2026-05-05 12:52 | 42.43574 | -2.92245 | 36000 ft | 493 kts | 79° |
| 2026-05-05 12:52 | 42.43956 | -2.83040 | 35998 ft | 489 kts | 98° |
| 2026-05-05 12:53 | 42.42455 | -2.74090 | 35985 ft | 486 kts | 108° |
| 2026-05-05 12:53 | 42.40639 | -2.65269 | 35975 ft | 487 kts | 108° |
| 2026-05-05 12:54 | 42.37909 | -2.52034 | 35984 ft | 487 kts | 108° |
| 2026-05-05 12:55 | 42.36066 | -2.43192 | 35965 ft | 488 kts | 109° |
| 2026-05-05 12:55 | 42.34215 | -2.34366 | 35970 ft | 489 kts | 109° |
| 2026-05-05 12:56 | 42.32354 | -2.25521 | 35964 ft | 489 kts | 109° |
| 2026-05-05 12:56 | 42.30488 | -2.16673 | 35969 ft | 489 kts | 109° |
| 2026-05-05 12:57 | 42.28633 | -2.07888 | 35977 ft | 489 kts | 109° |
| 2026-05-05 12:57 | 42.26753 | -1.99052 | 35979 ft | 489 kts | 109° |
| 2026-05-05 12:58 | 42.24867 | -1.90227 | 35970 ft | 490 kts | 109° |
| 2026-05-05 12:58 | 42.22961 | -1.81374 | 35980 ft | 490 kts | 109° |
| 2026-05-05 12:59 | 42.21060 | -1.72555 | 35984 ft | 490 kts | 110° |
| 2026-05-05 12:59 | 42.19153 | -1.63733 | 35989 ft | 490 kts | 110° |
| 2026-05-05 13:00 | 42.16281 | -1.50486 | 35961 ft | 491 kts | 110° |
| 2026-05-05 13:01 | 42.12417 | -1.32864 | 35981 ft | 492 kts | 110° |
| 2026-05-05 13:01 | 42.10464 | -1.24015 | 35987 ft | 493 kts | 110° |
| 2026-05-05 13:02 | 42.08512 | -1.15168 | 35985 ft | 493 kts | 110° |
| 2026-05-05 13:02 | 42.06550 | -1.06327 | 35970 ft | 493 kts | 111° |
| 2026-05-05 13:03 | 42.04572 | -0.97475 | 35975 ft | 493 kts | 111° |
| 2026-05-05 13:03 | 42.02604 | -0.88693 | 35978 ft | 493 kts | 111° |
| 2026-05-05 13:04 | 42.00609 | -0.79813 | 35980 ft | 493 kts | 111° |
| 2026-05-05 13:04 | 41.98626 | -0.71042 | 35965 ft | 493 kts | 112° |
| 2026-05-05 13:05 | 41.96623 | -0.62204 | 35943 ft | 494 kts | 112° |
| 2026-05-05 13:05 | 41.94614 | -0.53366 | 35942 ft | 494 kts | 112° |
| 2026-05-05 13:06 | 41.92590 | -0.44536 | 35933 ft | 495 kts | 112° |
| 2026-05-05 13:06 | 41.90559 | -0.35698 | 35943 ft | 495 kts | 112° |
| 2026-05-05 13:07 | 41.88539 | -0.26906 | 35937 ft | 495 kts | 112° |
| 2026-05-05 13:07 | 41.86502 | -0.18083 | 35946 ft | 495 kts | 112° |
| 2026-05-05 13:08 | 41.84450 | -0.09256 | 35956 ft | 495 kts | 112° |
| 2026-05-05 13:08 | 41.82396 | -0.00442 | 35943 ft | 495 kts | 113° |
| 2026-05-05 13:09 | 41.80338 | 0.08364 | 35938 ft | 495 kts | 113° |
| 2026-05-05 13:09 | 41.78269 | 0.17159 | 35941 ft | 495 kts | 113° |
| 2026-05-05 13:10 | 41.76202 | 0.25895 | 35915 ft | 495 kts | 114° |
| 2026-05-05 13:10 | 41.74119 | 0.34686 | 35923 ft | 496 kts | 114° |
| 2026-05-05 13:11 | 41.72051 | 0.43517 | 35909 ft | 496 kts | 114° |
| 2026-05-05 13:11 | 41.70015 | 0.52333 | 35931 ft | 496 kts | 114° |
| 2026-05-05 13:12 | 41.67972 | 0.61161 | 35941 ft | 496 kts | 114° |
| 2026-05-05 13:12 | 41.65930 | 0.69972 | 35946 ft | 496 kts | 114° |
| 2026-05-05 13:13 | 41.63890 | 0.78776 | 35919 ft | 496 kts | 114° |
| 2026-05-05 13:13 | 41.61885 | 0.87613 | 35928 ft | 496 kts | 114° |
| 2026-05-05 13:14 | 41.59883 | 0.96433 | 35927 ft | 496 kts | 114° |
| 2026-05-05 13:14 | 41.57890 | 1.05198 | 35932 ft | 496 kts | 114° |
| 2026-05-05 13:15 | 41.55882 | 1.14019 | 35933 ft | 496 kts | 114° |
| 2026-05-05 13:15 | 41.53889 | 1.22841 | 35906 ft | 497 kts | 114° |
| 2026-05-05 13:16 | 41.51896 | 1.31676 | 35911 ft | 497 kts | 114° |
| 2026-05-05 13:16 | 41.49901 | 1.40500 | 35914 ft | 497 kts | 114° |
| 2026-05-05 13:17 | 41.47895 | 1.49356 | 35912 ft | 497 kts | 114° |
| 2026-05-05 13:17 | 41.45898 | 1.58181 | 35893 ft | 498 kts | 114° |
| 2026-05-05 13:18 | 41.43950 | 1.66853 | 35889 ft | 478 kts | 114° |
| 2026-05-05 13:18 | 41.43028 | 1.71034 | 35886 ft | 464 kts | 114° |
| 2026-05-05 13:18 | 41.42140 | 1.75116 | 35884 ft | 450 kts | 114° |
| 2026-05-05 13:19 | 41.41296 | 1.79062 | 35883 ft | 437 kts | 114° |
| 2026-05-05 13:19 | 41.40484 | 1.82907 | 35881 ft | 428 kts | 114° |
| 2026-05-05 13:19 | 41.38889 | 1.90503 | 35895 ft | 424 kts | 114° |
| 2026-05-05 13:20 | 41.37319 | 1.98086 | 35870 ft | 426 kts | 114° |
| 2026-05-05 13:20 | 41.35754 | 2.05655 | 35872 ft | 426 kts | 114° |
| 2026-05-05 13:21 | 41.34182 | 2.13262 | 35872 ft | 426 kts | 114° |
| 2026-05-05 13:21 | 41.32610 | 2.20861 | 35835 ft | 426 kts | 114° |
| 2026-05-05 13:22 | 41.31042 | 2.28472 | 35831 ft | 428 kts | 114° |
| 2026-05-05 13:22 | 41.29469 | 2.36106 | 35798 ft | 427 kts | 114° |
| 2026-05-05 13:23 | 41.27900 | 2.43724 | 35793 ft | 427 kts | 114° |
| 2026-05-05 13:23 | 41.26330 | 2.51342 | 35792 ft | 427 kts | 114° |
| 2026-05-05 13:24 | 41.24770 | 2.58904 | 35790 ft | 427 kts | 114° |
| 2026-05-05 13:24 | 41.23199 | 2.66512 | 35790 ft | 427 kts | 114° |
| 2026-05-05 13:25 | 41.21642 | 2.74088 | 35746 ft | 425 kts | 114° |
| 2026-05-05 13:25 | 41.20092 | 2.81652 | 35750 ft | 424 kts | 114° |
| 2026-05-05 13:26 | 41.18806 | 2.87930 | 35750 ft | 424 kts | 114° |
| 2026-05-05 13:26 | 41.17254 | 2.95493 | 35752 ft | 424 kts | 114° |
| 2026-05-05 13:27 | 41.15450 | 3.04276 | 35749 ft | 424 kts | 114° |
| 2026-05-05 13:27 | 41.14163 | 3.10547 | 35729 ft | 423 kts | 114° |
| 2026-05-05 13:28 | 41.12621 | 3.18074 | 35728 ft | 422 kts | 114° |
| 2026-05-05 13:28 | 41.11082 | 3.25592 | 35733 ft | 423 kts | 114° |
| 2026-05-05 13:29 | 41.09542 | 3.33110 | 35729 ft | 422 kts | 114° |
| 2026-05-05 13:29 | 41.07998 | 3.40629 | 35701 ft | 422 kts | 114° |
| 2026-05-05 13:30 | 41.06452 | 3.48133 | 35698 ft | 421 kts | 114° |
| 2026-05-05 13:30 | 41.04908 | 3.55621 | 35698 ft | 421 kts | 114° |
| 2026-05-05 13:31 | 41.03367 | 3.63087 | 35698 ft | 420 kts | 114° |
| 2026-05-05 13:31 | 41.01829 | 3.70537 | 35697 ft | 419 kts | 114° |
| 2026-05-05 13:32 | 41.00288 | 3.77997 | 35695 ft | 419 kts | 114° |
| 2026-05-05 13:32 | 40.98730 | 3.85416 | 35668 ft | 415 kts | 119° |
| 2026-05-05 13:33 | 40.97542 | 3.88763 | 35176 ft | 404 kts | 136° |
| 2026-05-05 13:33 | 40.95713 | 3.91431 | 34607 ft | 381 kts | 154° |
| 2026-05-05 13:33 | 40.93540 | 3.93254 | 34244 ft | 358 kts | 167° |
| 2026-05-05 13:33 | 40.91251 | 3.94279 | 33879 ft | 338 kts | 180° |
| 2026-05-05 13:34 | 40.88977 | 3.94564 | 33509 ft | 320 kts | 191° |
| 2026-05-05 13:34 | 40.86830 | 3.94191 | 33188 ft | 304 kts | 202° |
| 2026-05-05 13:34 | 40.84901 | 3.93275 | 33112 ft | 287 kts | 212° |
| 2026-05-05 13:34 | 40.83216 | 3.91938 | 32872 ft | 278 kts | 221° |
| 2026-05-05 13:35 | 40.81802 | 3.90229 | 32813 ft | 275 kts | 229° |
| 2026-05-05 13:35 | 40.80618 | 3.88194 | 31938 ft | 288 kts | 238° |
| 2026-05-05 13:35 | 40.79756 | 3.85756 | 31137 ft | 302 kts | 249° |
| 2026-05-05 13:35 | 40.79222 | 3.83061 | 30883 ft | 297 kts | 251° |
| 2026-05-05 13:36 | 40.78727 | 3.80478 | 30657 ft | 291 kts | 251° |
| 2026-05-05 13:36 | 40.78221 | 3.77924 | 30416 ft | 285 kts | 250° |
| 2026-05-05 13:36 | 40.77721 | 3.75427 | 30180 ft | 279 kts | 250° |
| 2026-05-05 13:36 | 40.77231 | 3.72972 | 29941 ft | 274 kts | 250° |
| 2026-05-05 13:37 | 40.76755 | 3.70567 | 29648 ft | 269 kts | 250° |
| 2026-05-05 13:37 | 40.76286 | 3.68203 | 29367 ft | 264 kts | 250° |
| 2026-05-05 13:37 | 40.75825 | 3.65880 | 29088 ft | 259 kts | 250° |
| 2026-05-05 13:37 | 40.75370 | 3.63600 | 28816 ft | 256 kts | 250° |
| 2026-05-05 13:38 | 40.74920 | 3.61337 | 28543 ft | 253 kts | 250° |
| 2026-05-05 13:38 | 40.74475 | 3.59101 | 28273 ft | 252 kts | 251° |
| 2026-05-05 13:38 | 40.74031 | 3.56863 | 28004 ft | 251 kts | 251° |
| 2026-05-05 13:38 | 40.73591 | 3.54638 | 27733 ft | 250 kts | 251° |
| 2026-05-05 13:39 | 40.73152 | 3.52429 | 27463 ft | 249 kts | 251° |
| 2026-05-05 13:39 | 40.72719 | 3.50252 | 27233 ft | 248 kts | 251° |
| 2026-05-05 13:39 | 40.72282 | 3.48058 | 26965 ft | 247 kts | 251° |
| 2026-05-05 13:39 | 40.71847 | 3.45873 | 26705 ft | 245 kts | 251° |
| 2026-05-05 13:40 | 40.71411 | 3.43706 | 26462 ft | 244 kts | 251° |
| 2026-05-05 13:40 | 40.70975 | 3.41534 | 26208 ft | 244 kts | 251° |
| 2026-05-05 13:40 | 40.70542 | 3.39375 | 25961 ft | 243 kts | 251° |
| 2026-05-05 13:40 | 40.70111 | 3.37224 | 25715 ft | 242 kts | 251° |
| 2026-05-05 13:41 | 40.69684 | 3.35091 | 25477 ft | 241 kts | 251° |
| 2026-05-05 13:41 | 40.69262 | 3.32978 | 25236 ft | 240 kts | 251° |
| 2026-05-05 13:41 | 40.68833 | 3.30853 | 24993 ft | 240 kts | 251° |
| 2026-05-05 13:41 | 40.68404 | 3.28729 | 24758 ft | 239 kts | 251° |
| 2026-05-05 13:42 | 40.67981 | 3.26621 | 24521 ft | 238 kts | 251° |
| 2026-05-05 13:42 | 40.67556 | 3.24514 | 24292 ft | 237 kts | 251° |
| 2026-05-05 13:42 | 40.67135 | 3.22412 | 24058 ft | 237 kts | 251° |
| 2026-05-05 13:42 | 40.66711 | 3.20318 | 23822 ft | 236 kts | 251° |
| 2026-05-05 13:43 | 40.66290 | 3.18235 | 23597 ft | 235 kts | 251° |
| 2026-05-05 13:43 | 40.65869 | 3.16161 | 23340 ft | 234 kts | 251° |
| 2026-05-05 13:43 | 40.65449 | 3.14093 | 23069 ft | 234 kts | 252° |
| 2026-05-05 13:43 | 40.65031 | 3.12028 | 22796 ft | 233 kts | 252° |
| 2026-05-05 13:44 | 40.64615 | 3.09974 | 22517 ft | 231 kts | 252° |
| 2026-05-05 13:44 | 40.64200 | 3.07930 | 22248 ft | 231 kts | 252° |
| 2026-05-05 13:44 | 40.63785 | 3.05895 | 21999 ft | 230 kts | 252° |
| 2026-05-05 13:44 | 40.63372 | 3.03870 | 21745 ft | 229 kts | 252° |
| 2026-05-05 13:45 | 40.62961 | 3.01849 | 21483 ft | 228 kts | 252° |
| 2026-05-05 13:45 | 40.62556 | 2.99861 | 21228 ft | 227 kts | 252° |
| 2026-05-05 13:45 | 40.62144 | 2.97847 | 20974 ft | 226 kts | 252° |
| 2026-05-05 13:45 | 40.61736 | 2.95848 | 20719 ft | 225 kts | 252° |
| 2026-05-05 13:46 | 40.61331 | 2.93863 | 20470 ft | 225 kts | 252° |
| 2026-05-05 13:46 | 40.60924 | 2.91879 | 20221 ft | 224 kts | 252° |
| 2026-05-05 13:46 | 40.60516 | 2.89898 | 19974 ft | 224 kts | 252° |
| 2026-05-05 13:46 | 40.60109 | 2.87922 | 19727 ft | 223 kts | 252° |
| 2026-05-05 13:47 | 40.59704 | 2.85960 | 19486 ft | 222 kts | 252° |
| 2026-05-05 13:47 | 40.59305 | 2.84022 | 19246 ft | 222 kts | 252° |
| 2026-05-05 13:47 | 40.58902 | 2.82064 | 19007 ft | 221 kts | 252° |
| 2026-05-05 13:47 | 40.58500 | 2.80114 | 18773 ft | 221 kts | 252° |
| 2026-05-05 13:48 | 40.58098 | 2.78160 | 18534 ft | 221 kts | 252° |
| 2026-05-05 13:48 | 40.57695 | 2.76209 | 18303 ft | 221 kts | 252° |
| 2026-05-05 13:48 | 40.57292 | 2.74264 | 18046 ft | 220 kts | 252° |
| 2026-05-05 13:48 | 40.56889 | 2.72321 | 17780 ft | 220 kts | 252° |
| 2026-05-05 13:49 | 40.56487 | 2.70371 | 17513 ft | 220 kts | 252° |
| 2026-05-05 13:49 | 40.56087 | 2.68433 | 17242 ft | 220 kts | 252° |
| 2026-05-05 13:49 | 40.55685 | 2.66495 | 16998 ft | 219 kts | 252° |
| 2026-05-05 13:49 | 40.55283 | 2.64564 | 16744 ft | 219 kts | 252° |
| 2026-05-05 13:50 | 40.54881 | 2.62629 | 16486 ft | 219 kts | 252° |
| 2026-05-05 13:50 | 40.54482 | 2.60699 | 16229 ft | 219 kts | 252° |
| 2026-05-05 13:50 | 40.54080 | 2.58770 | 15975 ft | 218 kts | 252° |
| 2026-05-05 13:50 | 40.53683 | 2.56868 | 15727 ft | 218 kts | 252° |
| 2026-05-05 13:51 | 40.53282 | 2.54944 | 15475 ft | 218 kts | 252° |
| 2026-05-05 13:51 | 40.52881 | 2.53019 | 15231 ft | 218 kts | 251° |
| 2026-05-05 13:51 | 40.52482 | 2.51106 | 14985 ft | 217 kts | 251° |
| 2026-05-05 13:51 | 40.52127 | 2.49166 | 14741 ft | 219 kts | 258° |
| 2026-05-05 13:52 | 40.52037 | 2.47161 | 14497 ft | 221 kts | 267° |
| 2026-05-05 13:52 | 40.52237 | 2.45144 | 14256 ft | 225 kts | 277° |
| 2026-05-05 13:52 | 40.52732 | 2.43169 | 14019 ft | 230 kts | 287° |
| 2026-05-05 13:52 | 40.53526 | 2.41316 | 13778 ft | 236 kts | 298° |
| 2026-05-05 13:53 | 40.54595 | 2.39686 | 13511 ft | 242 kts | 309° |
| 2026-05-05 13:53 | 40.55966 | 2.38303 | 13254 ft | 248 kts | 322° |
| 2026-05-05 13:53 | 40.57510 | 2.37335 | 13002 ft | 253 kts | 334° |
| 2026-05-05 13:53 | 40.59232 | 2.36764 | 12732 ft | 256 kts | 342° |
| 2026-05-05 13:54 | 40.60975 | 2.36293 | 12472 ft | 255 kts | 342° |
| 2026-05-05 13:54 | 40.62718 | 2.35818 | 12215 ft | 254 kts | 342° |
| 2026-05-05 13:54 | 40.64447 | 2.35342 | 11958 ft | 253 kts | 342° |
| 2026-05-05 13:54 | 40.66161 | 2.34870 | 11700 ft | 251 kts | 342° |
| 2026-05-05 13:55 | 40.67864 | 2.34400 | 11458 ft | 250 kts | 342° |
| 2026-05-05 13:55 | 40.69564 | 2.33931 | 11207 ft | 249 kts | 342° |
| 2026-05-05 13:55 | 40.71254 | 2.33468 | 10962 ft | 248 kts | 343° |
| 2026-05-05 13:55 | 40.72938 | 2.33004 | 10713 ft | 247 kts | 343° |
| 2026-05-05 13:56 | 40.74615 | 2.32539 | 10468 ft | 245 kts | 343° |
| 2026-05-05 13:56 | 40.76285 | 2.32077 | 10222 ft | 244 kts | 343° |
| 2026-05-05 13:56 | 40.77947 | 2.31621 | 9980 ft | 243 kts | 343° |
| 2026-05-05 13:56 | 40.79595 | 2.31170 | 9804 ft | 241 kts | 343° |
| 2026-05-05 13:57 | 40.81234 | 2.30718 | 9666 ft | 241 kts | 343° |
| 2026-05-05 13:57 | 40.82876 | 2.30266 | 9542 ft | 241 kts | 343° |
| 2026-05-05 13:57 | 40.84515 | 2.29815 | 9425 ft | 240 kts | 343° |
| 2026-05-05 13:57 | 40.86153 | 2.29363 | 9286 ft | 240 kts | 343° |
| 2026-05-05 13:58 | 40.87781 | 2.28914 | 9166 ft | 240 kts | 343° |
| 2026-05-05 13:58 | 40.89420 | 2.28460 | 9051 ft | 240 kts | 343° |
| 2026-05-05 13:58 | 40.91052 | 2.28008 | 8916 ft | 240 kts | 343° |
| 2026-05-05 13:58 | 40.92667 | 2.27560 | 8795 ft | 239 kts | 343° |
| 2026-05-05 13:59 | 40.95914 | 2.26665 | 8529 ft | 238 kts | 343° |
| 2026-05-05 13:59 | 40.97532 | 2.26217 | 8402 ft | 237 kts | 343° |
| 2026-05-05 14:00 | 41.00753 | 2.25318 | 8150 ft | 236 kts | 343° |
| 2026-05-05 14:00 | 41.01815 | 2.25021 | 8059 ft | 235 kts | 343° |
| 2026-05-05 14:00 | 41.03948 | 2.24426 | 7900 ft | 234 kts | 343° |
| 2026-05-05 14:00 | 41.05543 | 2.23984 | 7776 ft | 234 kts | 343° |
| 2026-05-05 14:01 | 41.07132 | 2.23540 | 7652 ft | 233 kts | 343° |
| 2026-05-05 14:01 | 41.08716 | 2.23097 | 7523 ft | 232 kts | 343° |
| 2026-05-05 14:01 | 41.10297 | 2.22655 | 7407 ft | 232 kts | 343° |
| 2026-05-05 14:01 | 41.11871 | 2.22216 | 7287 ft | 230 kts | 343° |
| 2026-05-05 14:02 | 41.13438 | 2.21780 | 7167 ft | 229 kts | 343° |
| 2026-05-05 14:02 | 41.14980 | 2.21350 | 7040 ft | 229 kts | 343° |
| 2026-05-05 14:02 | 41.16534 | 2.20915 | 6927 ft | 228 kts | 343° |
| 2026-05-05 14:02 | 41.18088 | 2.20477 | 6805 ft | 227 kts | 343° |
| 2026-05-05 14:03 | 41.19633 | 2.20044 | 6685 ft | 227 kts | 344° |
| 2026-05-05 14:03 | 41.21176 | 2.19615 | 6566 ft | 226 kts | 344° |
| 2026-05-05 14:03 | 41.22712 | 2.19189 | 6449 ft | 226 kts | 344° |
| 2026-05-05 14:03 | 41.24246 | 2.18765 | 6326 ft | 225 kts | 344° |
| 2026-05-05 14:04 | 41.25781 | 2.18340 | 6203 ft | 224 kts | 344° |
| 2026-05-05 14:04 | 41.27295 | 2.17918 | 6074 ft | 224 kts | 344° |
| 2026-05-05 14:04 | 41.28817 | 2.17490 | 5950 ft | 223 kts | 344° |
| 2026-05-05 14:04 | 41.30361 | 2.17390 | 5794 ft | 224 kts | 9° |
| 2026-05-05 14:05 | 41.31752 | 2.18245 | 5696 ft | 218 kts | 40° |
| 2026-05-05 14:05 | 41.32639 | 2.19771 | 5665 ft | 201 kts | 61° |
| 2026-05-05 14:05 | 41.33316 | 2.21357 | 5466 ft | 195 kts | 61° |
| 2026-05-05 14:05 | 41.33980 | 2.22902 | 5250 ft | 191 kts | 60° |
| 2026-05-05 14:06 | 41.34634 | 2.24427 | 4997 ft | 189 kts | 61° |
| 2026-05-05 14:06 | 41.35279 | 2.25930 | 4771 ft | 185 kts | 61° |
| 2026-05-05 14:06 | 41.35911 | 2.27401 | 4512 ft | 181 kts | 60° |
| 2026-05-05 14:06 | 41.36534 | 2.28846 | 4259 ft | 179 kts | 60° |
| 2026-05-05 14:07 | 41.37149 | 2.30272 | 4000 ft | 175 kts | 61° |
| 2026-05-05 14:07 | 41.37751 | 2.31668 | 3791 ft | 173 kts | 61° |
| 2026-05-05 14:07 | 41.38346 | 2.33047 | 3567 ft | 170 kts | 61° |
| 2026-05-05 14:07 | 41.38916 | 2.34367 | 3497 ft | 160 kts | 60° |
| 2026-05-05 14:08 | 41.39638 | 2.35432 | 3431 ft | 157 kts | 32° |
| 2026-05-05 14:08 | 41.40647 | 2.35924 | 3356 ft | 154 kts | 2° |
| 2026-05-05 14:08 | 41.41680 | 2.35748 | 3273 ft | 149 kts | 334° |
| 2026-05-05 14:08 | 41.42524 | 2.35003 | 3204 ft | 145 kts | 309° |
| 2026-05-05 14:09 | 41.43029 | 2.33880 | 3130 ft | 141 kts | 284° |
| 2026-05-05 14:09 | 41.43128 | 2.32605 | 3056 ft | 138 kts | 260° |
| 2026-05-05 14:09 | 41.42822 | 2.31409 | 2976 ft | 137 kts | 237° |
| 2026-05-05 14:09 | 41.42186 | 2.30497 | 2929 ft | 132 kts | 215° |
| 2026-05-05 14:10 | 41.41404 | 2.29869 | 2851 ft | 129 kts | 212° |
| 2026-05-05 14:10 | 41.40634 | 2.29251 | 2781 ft | 129 kts | 212° |
| 2026-05-05 14:10 | 41.39873 | 2.28640 | 2706 ft | 128 kts | 212° |
| 2026-05-05 14:10 | 41.39102 | 2.28022 | 2644 ft | 128 kts | 212° |
| 2026-05-05 14:11 | 41.38330 | 2.27404 | 2568 ft | 131 kts | 211° |
| 2026-05-05 14:11 | 41.37551 | 2.26780 | 2509 ft | 129 kts | 210° |
| 2026-05-05 14:11 | 41.36782 | 2.26161 | 2439 ft | 129 kts | 211° |
| 2026-05-05 14:11 | 41.36033 | 2.25527 | 2364 ft | 126 kts | 218° |
| 2026-05-05 14:12 | 41.35514 | 2.24588 | 2291 ft | 129 kts | 243° |
| 2026-05-05 14:12 | 41.35260 | 2.23882 | 2203 ft | 127 kts | 239° |
| 2026-05-05 14:12 | 41.34734 | 2.22477 | 1993 ft | 127 kts | 239° |
| 2026-05-05 14:12 | 41.34354 | 2.21408 | 1821 ft | 128 kts | 240° |
| 2026-05-05 14:13 | 41.33975 | 2.20323 | 1661 ft | 129 kts | 240° |
| 2026-05-05 14:13 | 41.33604 | 2.19248 | 1484 ft | 128 kts | 240° |
| 2026-05-05 14:13 | 41.33233 | 2.18166 | 1319 ft | 129 kts | 243° |
| 2026-05-05 14:13 | 41.32859 | 2.17072 | 1123 ft | 131 kts | 243° |
| 2026-05-05 14:14 | 41.32484 | 2.15976 | 967 ft | 128 kts | 244° |
| 2026-05-05 14:14 | 41.32115 | 2.14894 | 794 ft | 129 kts | 243° |
| 2026-05-05 14:14 | 41.31744 | 2.13807 | 629 ft | 130 kts | 242° |
| 2026-05-05 14:14 | 41.31364 | 2.12697 | 436 ft | 132 kts | 244° |
| 2026-05-05 14:15 | 41.30986 | 2.11589 | 266 ft | 131 kts | 242° |
| 2026-05-05 14:15 | 41.30733 | 2.10847 | 152 ft | 134 kts | 242° |
| 2026-05-05 14:15 | 41.30348 | 2.09730 | 56 ft | 130 kts | 243° |
| 2026-05-05 14:15 | 41.29884 | 2.08348 | 20 ft | 94 kts | 243° |
| 2026-05-05 14:16 | 41.29767 | 2.08052 | 18 ft | 36 kts | 240° |
| 2026-05-05 14:16 | 41.29657 | 2.07888 | 18 ft | 7 kts | 213° |
| 2026-05-05 14:16 | 41.29579 | 2.07831 | 19 ft | 19 kts | 196° |
| 2026-05-05 14:16 | 41.29526 | 2.07932 | 18 ft | 20 kts | 111° |
| 2026-05-05 14:17 | 41.29375 | 2.08008 | 18 ft | 25 kts | 156° |
| 2026-05-05 14:17 | 41.29243 | 2.07992 | 18 ft | 23 kts | 243° |
| 2026-05-05 14:17 | 41.29173 | 2.07734 | 20 ft | 29 kts | 250° |
| 2026-05-05 14:17 | 41.29279 | 2.07541 | 18 ft | 30 kts | 325° |
| 2026-05-05 14:18 | 41.29276 | 2.07334 | 18 ft | 17 kts | 243° |
| 2026-05-05 14:18 | 41.29187 | 2.07304 | 18 ft | 14 kts | 171° |
| 2026-05-05 14:18 | 41.29160 | 2.07323 | 20 ft | 1 kts | 150° |
| 2026-05-05 14:18 | 41.29153 | 2.07316 | 20 ft | 4 kts | 208° |
| 2026-05-05 14:19 | 41.29120 | 2.07309 | 18 ft | 0 kts | 155° |